CheckWX is a tool to help pilots better visualize weather data.  It is not intended as a substitute for an official pre-flight weather briefing.

11:07:02 UTC

KOFF METAR
Offutt AFB Airport
Omaha, Nebraska, USA
Current

1 hour ago

KOFF 310956Z AUTO 12003KT 10SM BKN050 OVC075 14/13 A3022 RMK AO2 SLP238 T01440126 $
Observed
May-31 @ 09:56 UTC
Wind
  • 120° at 3 KTS
Visibility
Flight Rules
VFR
Cloud Levels
  • Broken at 5,000' AGL
  • Overcast at 7,500' AGL
Temperature
14°C / 57°F
Dewpoint
13°C / 55°F
Humidity
94%
Altimeter
30.22" Hg
Pressure
1023.42 hPa
Previous

2 hours ago

KOFF 310856Z AUTO 12005KT 10SM FEW060 OVC075 15/13 A3021 RMK AO2 SLP234 T01480125 57004 $
Observed
May-31 @ 08:56 UTC
Wind
  • 120° at 5 KTS
Visibility
Flight Rules
VFR
Cloud Levels
  • Few at 6,000' AGL
  • Overcast at 7,500' AGL
Temperature
15°C / 59°F
Dewpoint
12°C / 54°F
Humidity
82%
Altimeter
30.21" Hg
Pressure
1023.02 hPa
Previous

3 hours ago

KOFF 310756Z AUTO 12003KT 10SM OVC055 15/13 A3022 RMK AO2 SLP237 T01520129 $
Observed
May-31 @ 07:56 UTC
Wind
  • 120° at 3 KTS
Visibility
Flight Rules
VFR
Cloud Levels
  • Overcast at 5,500' AGL
Temperature
15°C / 59°F
Dewpoint
13°C / 55°F
Humidity
88%
Altimeter
30.22" Hg
Pressure
1023.42 hPa